createdAt,value
2019-05-18T00:00:03.698Z,1007.19
2019-05-18T00:10:03.428Z,1007.18
2019-05-18T00:20:03.034Z,1007.18
2019-05-18T00:30:04.547Z,1007.19
2019-05-18T00:40:03.519Z,1007.09
2019-05-18T00:50:03.103Z,1007.10
2019-05-18T01:00:04.320Z,1007.13
2019-05-18T01:10:03.071Z,1007.06
2019-05-18T01:20:03.740Z,1007.02
2019-05-18T01:30:03.931Z,1006.97
2019-05-18T01:40:03.735Z,1006.97
2019-05-18T01:50:03.377Z,1006.98
2019-05-18T02:00:03.683Z,1006.92
2019-05-18T02:10:03.608Z,1006.82
2019-05-18T02:20:03.400Z,1006.79
2019-05-18T02:30:04.014Z,1006.78
2019-05-18T02:40:03.804Z,1006.70
2019-05-18T02:50:03.444Z,1006.71
2019-05-18T03:00:04.394Z,1006.72
2019-05-18T03:10:03.465Z,1006.75
2019-05-18T03:20:03.442Z,1006.78
2019-05-18T03:30:03.703Z,1006.86
2019-05-18T03:40:03.696Z,1006.99
2019-05-18T03:50:02.984Z,1007.05
2019-05-18T04:00:03.979Z,1007.15
2019-05-18T04:10:02.681Z,1007.08
2019-05-18T04:20:03.218Z,1007.15
2019-05-18T04:30:03.649Z,1007.17
2019-05-18T04:40:03.669Z,1007.21
2019-05-18T04:50:06.891Z,1007.23
2019-05-18T05:00:03.645Z,1007.18
2019-05-18T05:10:05.706Z,1007.18
2019-05-18T05:20:02.869Z,1007.19
2019-05-18T05:30:04.066Z,1007.24
2019-05-18T05:40:03.491Z,1007.21
2019-05-18T05:50:03.412Z,1007.29
2019-05-18T06:00:03.724Z,1007.33
2019-05-18T06:10:03.384Z,1007.39
2019-05-18T06:20:04.033Z,1007.35
2019-05-18T06:30:04.295Z,1007.40
2019-05-18T06:40:03.019Z,1007.36
2019-05-18T06:50:03.652Z,1007.42
2019-05-18T07:00:03.972Z,1007.41
2019-05-18T07:10:02.938Z,1007.38
2019-05-18T07:20:02.774Z,1007.37
2019-05-18T07:30:03.991Z,1007.36
2019-05-18T07:40:03.424Z,1007.27
2019-05-18T07:50:03.697Z,1007.26
2019-05-18T08:00:09.837Z,1007.30
2019-05-18T08:10:03.641Z,1007.26
2019-05-18T08:20:03.194Z,1007.26
2019-05-18T08:30:04.551Z,1007.20
2019-05-18T08:40:03.479Z,1007.17
2019-05-18T08:50:03.175Z,1007.11
2019-05-18T09:00:04.656Z,1007.07
2019-05-18T09:10:03.473Z,1007.10
2019-05-18T09:20:03.392Z,1007.14
2019-05-18T09:30:03.859Z,1007.15
2019-05-18T09:40:03.635Z,1007.09
2019-05-18T09:50:02.825Z,1007.04
2019-05-18T10:00:04.418Z,1007.10
2019-05-18T10:10:03.197Z,1007.06
2019-05-18T10:20:02.729Z,1006.98
2019-05-18T10:30:04.053Z,1006.95
2019-05-18T10:40:03.161Z,1006.90
2019-05-18T10:50:03.619Z,1006.82
2019-05-18T11:00:04.027Z,1006.78
2019-05-18T11:10:03.687Z,1006.66
2019-05-18T11:20:03.503Z,1006.54
2019-05-18T11:30:05.978Z,1006.34
2019-05-18T11:40:03.124Z,1006.39
2019-05-18T11:50:03.294Z,1006.45
2019-05-18T12:00:03.565Z,1006.36
2019-05-18T12:10:03.151Z,1006.25
2019-05-18T12:20:03.134Z,1006.15
2019-05-18T12:30:03.524Z,1006.13
2019-05-18T12:40:03.275Z,1006.05
2019-05-18T12:50:03.090Z,1005.97
2019-05-18T13:00:04.336Z,1005.99
2019-05-18T13:10:03.023Z,1005.89
2019-05-18T13:20:03.680Z,1005.85
2019-05-18T13:30:03.794Z,1005.81
2019-05-18T13:40:03.631Z,1005.78
2019-05-18T13:50:02.964Z,1005.61
2019-05-18T14:00:04.345Z,1005.69
2019-05-18T14:10:02.971Z,1005.59
2019-05-18T14:20:03.482Z,1005.51
2019-05-18T14:30:03.563Z,1005.44
2019-05-18T14:40:03.682Z,1005.47
2019-05-18T14:50:03.181Z,1005.44
2019-05-18T15:00:04.208Z,1005.44
2019-05-18T15:10:02.967Z,1005.47
2019-05-18T15:20:02.748Z,1005.43
2019-05-18T15:30:04.049Z,1005.33
2019-05-18T15:40:03.057Z,1005.19
2019-05-18T15:50:03.414Z,1005.11
2019-05-18T16:00:07.868Z,1005.08
2019-05-18T16:10:02.795Z,1005.17
2019-05-18T16:20:03.961Z,1005.10
2019-05-18T16:30:03.853Z,1005.09
2019-05-18T16:40:03.663Z,1005.10
2019-05-18T16:50:03.131Z,1005.10
2019-05-18T17:00:04.515Z,1005.07
2019-05-18T17:10:03.373Z,1005.04
2019-05-18T17:20:02.934Z,1005.12
2019-05-18T17:30:04.110Z,1005.11
2019-05-18T17:40:02.884Z,1005.10
2019-05-18T17:50:03.438Z,1005.10
2019-05-18T18:00:04.184Z,1005.15
2019-05-18T18:10:03.327Z,1005.23
2019-05-18T18:20:03.200Z,1005.28
2019-05-18T18:30:04.451Z,1005.34
2019-05-18T18:40:03.849Z,1005.42
2019-05-18T18:50:03.470Z,1005.47
2019-05-18T19:00:03.538Z,1005.48
2019-05-18T19:10:03.412Z,1005.58
2019-05-18T19:20:02.903Z,1005.74
2019-05-18T19:30:08.941Z,1005.77
2019-05-18T19:40:03.052Z,1005.80
2019-05-18T19:50:03.334Z,1005.79
2019-05-18T20:00:04.415Z,1005.77
2019-05-18T20:10:03.108Z,1005.78
2019-05-18T20:20:03.933Z,1005.79
2019-05-18T20:30:03.423Z,1005.79
2019-05-18T20:40:03.243Z,1005.76
2019-05-18T20:50:02.793Z,1005.78
2019-05-18T21:00:04.150Z,1005.77
2019-05-18T21:10:03.648Z,1005.79
2019-05-18T21:20:04.097Z,1005.77
2019-05-18T21:30:03.956Z,1005.73
2019-05-18T21:40:02.770Z,1005.61
2019-05-18T21:50:03.213Z,1005.61
2019-05-18T22:00:03.815Z,1005.62
2019-05-18T22:10:03.574Z,1005.67
2019-05-18T22:20:03.256Z,1005.54
2019-05-18T22:30:04.334Z,1005.48
2019-05-18T22:40:03.455Z,1005.44
2019-05-18T22:50:02.823Z,1005.30
2019-05-18T23:00:03.801Z,1005.30
2019-05-18T23:10:03.611Z,1005.12
2019-05-18T23:20:03.111Z,1005.13
2019-05-18T23:30:04.239Z,1005.11
2019-05-18T23:40:03.086Z,1005.18
2019-05-18T23:50:03.422Z,1005.17
